Time;durP1;ratioP1;P1;durP2;ratioP2;P2;SDS_P1;SDS_P2;PMS_P1;PMS_P2;Temp;Humidity;BMP_temperature;BMP_pressure;BME280_temperature;BME280_humidity;BME280_pressure;Samples;Min_cycle;Max_cycle;Signal;HPM_P1;HPM_P2
2023/08/02 00:00:46;;;;;;;7.68;2.60;;;;;;;14.59;100.00;99942.53;5037699;28;20029;-95
2023/08/02 00:03:19;;;;;;;9.80;2.50;;;;;;;14.56;100.00;99946.59;5037356;28;20036;-95
2023/08/02 00:06:17;;;;;;;6.53;2.00;;;;;;;14.50;100.00;99936.72;5005877;28;20037;-95
2023/08/02 00:08:50;;;;;;;6.38;2.40;;;;;;;14.47;100.00;99936.44;5034510;28;20037;-94
2023/08/02 00:11:26;;;;;;;4.87;2.30;;;;;;;14.42;100.00;99939.13;5037365;28;20087;-95
2023/08/02 00:13:52;;;;;;;7.25;2.38;;;;;;;14.36;100.00;99947.31;5038112;28;20028;-95
2023/08/02 00:16:22;;;;;;;6.13;2.33;;;;;;;14.33;100.00;99939.59;5038390;28;20021;-94
2023/08/02 00:18:47;;;;;;;6.13;2.13;;;;;;;14.29;100.00;99949.44;5024176;28;20453;-96
2023/08/02 00:21:18;;;;;;;5.20;2.17;;;;;;;14.27;100.00;99939.84;5039110;28;20036;-94
2023/08/02 00:23:49;;;;;;;7.65;2.42;;;;;;;14.21;100.00;99939.81;5038601;28;20530;-94
2023/08/02 00:26:21;;;;;;;6.63;2.10;;;;;;;14.21;100.00;99944.44;5037235;28;20033;-95
2023/08/02 00:28:54;;;;;;;6.47;2.20;;;;;;;14.18;100.00;99932.16;5037419;28;20172;-94
2023/08/02 00:31:24;;;;;;;8.88;2.92;;;;;;;14.19;100.00;99931.06;5037724;28;20464;-94
2023/08/02 00:33:56;;;;;;;7.82;2.15;;;;;;;14.23;100.00;99938.72;5037742;28;20433;-94
2023/08/02 00:36:24;;;;;;;5.15;2.33;;;;;;;14.30;100.00;99942.06;5036756;28;20025;-94
2023/08/02 00:38:58;;;;;;;10.47;2.77;;;;;;;14.33;100.00;99928.69;5021087;28;20221;-93
2023/08/02 00:41:32;;;;;;;10.73;2.50;;;;;;;14.39;100.00;99919.47;5036734;28;20036;-94
2023/08/02 00:44:00;;;;;;;6.07;2.40;;;;;;;14.45;100.00;99927.69;5036942;28;20033;-94
2023/08/02 00:46:33;;;;;;;7.95;2.00;;;;;;;14.48;100.00;99921.69;5037084;28;20041;-94
2023/08/02 00:49:01;;;;;;;9.77;2.17;;;;;;;14.53;100.00;99913.56;5037426;28;20025;-94
2023/08/02 00:51:40;;;;;;;6.57;2.30;;;;;;;14.54;100.00;99910.56;5036617;28;20596;-94
2023/08/02 00:54:08;;;;;;;6.88;2.30;;;;;;;14.60;100.00;99905.13;5036088;28;20452;-93
2023/08/02 00:56:41;;;;;;;4.85;2.13;;;;;;;14.63;100.00;99894.53;5019741;28;20056;-94
2023/08/02 00:59:12;;;;;;;7.28;2.28;;;;;;;14.64;100.00;99885.22;5036286;28;20033;-94
2023/08/02 01:01:37;;;;;;;6.80;2.50;;;;;;;14.69;100.00;99893.47;5020914;28;20469;-94
2023/08/02 01:04:05;;;;;;;8.40;2.70;;;;;;;14.72;100.00;99894.84;5036080;28;20083;-94
2023/08/02 01:07:16;;;;;;;7.18;2.22;;;;;;;14.76;100.00;99890.47;5036693;28;20108;-94
2023/08/02 01:10:11;;;;;;;6.90;2.33;;;;;;;14.78;100.00;99888.31;5036878;28;20382;-93
2023/08/02 01:12:54;;;;;;;8.43;2.43;;;;;;;14.81;100.00;99886.97;5035069;28;20037;-94
2023/08/02 01:15:23;;;;;;;13.57;3.67;;;;;;;14.85;100.00;99902.53;5036076;28;20107;-94
2023/08/02 01:17:54;;;;;;;6.38;2.10;;;;;;;14.90;100.00;99899.00;5020230;28;20025;-93
2023/08/02 01:20:27;;;;;;;9.68;2.30;;;;;;;14.93;100.00;99901.22;5024175;28;20535;-94
2023/08/02 01:23:31;;;;;;;;;;;;;;;;;;;;;
2023/08/02 01:26:14;;;;;;;5.87;2.13;;;;;;;14.96;100.00;99883.47;5055467;28;20412;-94
2023/08/02 01:28:47;;;;;;;8.80;2.35;;;;;;;14.96;100.00;99872.53;5040620;28;20025;-94
2023/08/02 01:31:34;;;;;;;;;;;;;;;;;;;;;
2023/08/02 01:34:09;;;;;;;8.43;2.30;;;;;;;14.99;100.00;99870.09;5058401;28;20031;-94
2023/08/02 01:36:40;;;;;;;8.38;2.45;;;;;;;15.01;100.00;99875.28;5041579;28;20029;-94
2023/08/02 01:39:11;;;;;;;7.00;2.50;;;;;;;15.03;100.00;99876.66;5040828;28;20437;-93
2023/08/02 01:41:47;;;;;;;;;;;;;;;;;;;;;
2023/08/02 01:44:16;;;;;;;8.88;2.40;;;;;;;15.03;100.00;99860.28;5058324;28;20043;-94
2023/08/02 01:47:14;;;;;;;7.95;2.38;;;;;;;15.04;100.00;99852.88;5039881;28;20044;-94
2023/08/02 01:49:48;;;;;;;6.85;2.28;;;;;;;15.02;100.00;99842.22;5023710;28;20041;-93
2023/08/02 01:52:23;;;;;;;7.17;2.30;;;;;;;15.05;100.00;99847.16;5039370;28;20061;-94
2023/08/02 01:54:56;;;;;;;6.35;2.50;;;;;;;15.03;100.00;99843.88;5024408;28;20102;-94
2023/08/02 01:57:24;;;;;;;9.02;2.40;;;;;;;15.02;100.00;99838.69;5008020;28;20037;-94
2023/08/02 02:00:06;;;;;;;10.40;2.90;;;;;;;15.00;100.00;99840.84;5023069;28;20473;-93
2023/08/02 02:02:46;;;;;;;6.97;2.47;;;;;;;14.94;100.00;99822.81;5039580;28;20053;-93
2023/08/02 02:05:27;;;;;;;6.33;2.80;;;;;;;14.88;100.00;99817.34;5039534;28;20124;-94
2023/08/02 02:07:57;;;;;;;9.65;2.40;;;;;;;14.86;100.00;99813.25;5024140;28;20078;-94
2023/08/02 02:10:35;;;;;;;;;;;;;;;;;;;;;
2023/08/02 02:13:01;;;;;;;5.85;2.40;;;;;;;14.86;100.00;99805.84;5041444;28;20037;-95
2023/08/02 02:15:44;;;;;;;9.40;2.50;;;;;;;14.85;100.00;99806.97;5039642;28;20115;-95
2023/08/02 02:24:08;;;;;;;4.10;2.30;;;;;;;14.89;100.00;99769.00;5055698;28;20033;-95
2023/08/02 02:26:44;;;;;;;;;;;;;;;;;;;;;
2023/08/02 02:29:14;;;;;;;6.18;2.20;;;;;;;14.90;100.00;99740.63;5057652;28;20035;-94
2023/08/02 02:31:43;;;;;;;8.40;2.72;;;;;;;14.90;100.00;99733.22;5022370;28;20143;-94
2023/08/02 02:34:11;;;;;;;7.90;2.85;;;;;;;14.93;100.00;99737.34;5039145;28;20472;-94
2023/08/02 02:36:44;;;;;;;7.95;2.40;;;;;;;14.94;100.00;99736.25;5039397;28;20033;-94
2023/08/02 02:39:18;;;;;;;8.37;2.37;;;;;;;14.98;100.00;99747.44;5039223;28;20037;-94
2023/08/02 02:41:48;;;;;;;7.13;2.60;;;;;;;14.98;100.00;99737.31;5039843;28;20032;-93
2023/08/02 02:44:18;;;;;;;8.80;2.70;;;;;;;14.99;100.00;99735.44;5022870;28;20068;-94
2023/08/02 02:46:47;;;;;;;6.15;2.53;;;;;;;15.00;100.00;99723.41;5023081;28;20037;-94
2023/08/02 02:49:26;;;;;;;10.18;2.60;;;;;;;15.05;100.00;99737.88;5023192;28;20091;-94
2023/08/02 02:51:54;;;;;;;6.93;2.57;;;;;;;15.06;100.00;99736.81;5022864;28;20029;-94
2023/08/02 02:54:24;;;;;;;9.57;2.53;;;;;;;15.07;100.00;99734.88;5038447;28;20494;-94
2023/08/02 02:56:53;;;;;;;6.20;2.30;;;;;;;15.11;100.00;99743.38;5023042;28;20033;-94
2023/08/02 02:59:24;;;;;;;6.15;2.28;;;;;;;15.12;100.00;99731.31;5038874;28;20035;-94
2023/08/02 03:01:52;;;;;;;6.88;2.30;;;;;;;15.13;100.00;99722.03;5022196;28;20029;-94
2023/08/02 03:04:23;;;;;;;6.57;2.90;;;;;;;15.13;100.00;99719.31;5021714;28;20041;-94
2023/08/02 03:07:02;;;;;;;8.43;2.42;;;;;;;15.11;100.00;99711.38;5038624;28;20025;-94
2023/08/02 03:09:32;;;;;;;6.55;2.40;;;;;;;15.11;100.00;99683.28;5023759;28;20056;-94
2023/08/02 03:12:00;;;;;;;7.35;2.60;;;;;;;15.13;100.00;99678.34;5022428;28;20025;-94
2023/08/02 03:14:31;;;;;;;6.90;2.35;;;;;;;15.13;100.00;99661.94;5021749;28;20045;-95
2023/08/02 03:16:56;;;;;;;6.17;2.20;;;;;;;15.08;100.00;99663.59;5038904;28;20025;-94
2023/08/02 03:19:31;;;;;;;10.20;2.33;;;;;;;15.02;100.00;99651.03;5038835;28;20036;-95
2023/08/02 03:22:06;;;;;;;5.22;2.20;;;;;;;14.99;100.00;99648.03;5006054;28;20481;-94
2023/08/02 03:24:39;;;;;;;6.65;2.20;;;;;;;14.99;100.00;99639.84;5022606;28;20066;-94
2023/08/02 03:27:25;;;;;;;4.80;2.30;;;;;;;14.98;100.00;99641.72;5021813;28;20230;-94
2023/08/02 03:29:58;;;;;;;4.70;2.25;;;;;;;14.99;100.00;99631.66;5022481;28;20389;-94
2023/08/02 03:32:41;;;;;;;7.70;2.42;;;;;;;14.99;100.00;99637.91;5021963;28;20041;-95
2023/08/02 03:35:20;;;;;;;6.15;2.30;;;;;;;14.99;100.00;99643.38;5037626;28;20032;-95
2023/08/02 03:37:56;;;;;;;5.63;2.60;;;;;;;15.02;100.00;99636.56;5038290;28;20086;-95
2023/08/02 03:40:33;;;;;;;;;;;;;;;;;;;;;
2023/08/02 03:43:07;;;;;;;6.40;2.47;;;;;;;15.07;100.00;99621.00;5055340;28;20025;-95
2023/08/02 03:45:37;;;;;;;8.68;3.00;;;;;;;15.11;100.00;99614.97;5037740;28;20037;-95
2023/08/02 03:48:08;;;;;;;5.35;2.50;;;;;;;15.16;100.00;99610.31;5037866;28;20040;-95
2023/08/02 03:50:36;;;;;;;8.65;3.10;;;;;;;15.17;100.00;99608.41;5037784;28;20035;-95
2023/08/02 03:53:21;;;;;;;4.80;2.90;;;;;;;15.17;100.00;99595.56;5037441;28;20033;-94
2023/08/02 03:55:50;;;;;;;9.13;3.20;;;;;;;15.16;100.00;99591.19;5036963;28;20041;-95
2023/08/02 03:58:21;;;;;;;5.18;3.20;;;;;;;15.18;100.00;99583.53;5037781;28;20473;-95
2023/08/02 04:00:58;;;;;;;6.55;2.80;;;;;;;15.18;100.00;99583.53;5022083;28;20033;-95
2023/08/02 04:03:26;;;;;;;7.75;2.95;;;;;;;15.18;100.00;99575.34;5022569;28;20033;-94
2023/08/02 04:06:20;;;;;;;7.53;3.20;;;;;;;15.18;100.00;99566.34;5021633;28;20024;-95
2023/08/02 04:08:49;;;;;;;9.10;2.88;;;;;;;15.18;100.00;99555.41;5037827;28;20033;-94
2023/08/02 04:11:23;;;;;;;7.13;3.05;;;;;;;15.19;100.00;99551.56;5037041;28;20037;-94
2023/08/02 04:13:52;;;;;;;5.65;3.00;;;;;;;15.16;100.00;99544.75;5005615;28;20033;-94
2023/08/02 04:16:36;;;;;;;6.78;3.33;;;;;;;15.16;100.00;99536.56;5037252;28;20094;-94
2023/08/02 04:19:13;;;;;;;9.60;3.63;;;;;;;15.17;100.00;99529.97;5037417;28;20041;-94
2023/08/02 04:22:03;;;;;;;10.38;2.95;;;;;;;15.20;100.00;99528.63;5036773;28;20022;-94
2023/08/02 04:24:42;;;;;;;7.03;3.22;;;;;;;15.20;100.00;99525.88;5054269;28;20033;-94
2023/08/02 04:27:17;;;;;;;5.63;3.30;;;;;;;15.19;100.00;99516.88;5022212;28;20025;-95
2023/08/02 04:29:50;;;;;;;8.57;3.15;;;;;;;15.23;100.00;99496.06;5037371;28;20024;-95
2023/08/02 04:32:30;;;;;;;6.50;3.30;;;;;;;15.25;100.00;99493.91;5020782;28;20041;-95
2023/08/02 04:35:16;;;;;;;;;;;;;;;;;;;;;
2023/08/02 04:40:50;;;;;;;6.15;2.88;;;;;;;15.33;100.00;99488.94;5041052;28;20103;-95
2023/08/02 04:43:22;;;;;;;6.32;2.90;;;;;;;15.34;100.00;99469.53;5036664;28;20025;-94
2023/08/02 04:46:05;;;;;;;;;;;;;;;;;;;;;
2023/08/02 04:48:41;;;;;;;6.03;3.17;;;;;;;15.39;100.00;99438.63;5039188;28;20446;-94
2023/08/02 04:51:08;;;;;;;7.07;3.28;;;;;;;15.43;100.00;99429.59;5036607;28;20029;-94
2023/08/02 04:53:43;;;;;;;5.28;3.00;;;;;;;15.40;100.00;99432.88;5035528;28;20021;-95
2023/08/02 04:56:24;;;;;;;8.40;3.28;;;;;;;15.34;100.00;99424.97;5017403;28;20064;-95
2023/08/02 04:58:56;;;;;;;6.50;3.47;;;;;;;15.29;100.00;99428.56;5002089;28;20045;-95
2023/08/02 05:04:55;;;;;;;6.68;3.55;;;;;;;15.26;100.00;99418.19;4944143;29;20130;-95
2023/08/02 05:07:39;;;;;;;6.90;3.60;;;;;;;15.20;100.00;99411.13;5000735;28;20057;-95
2023/08/02 05:10:24;;;;;;;7.43;3.20;;;;;;;15.06;100.00;99402.75;5018254;28;20029;-96
2023/08/02 05:12:53;;;;;;;6.47;3.63;;;;;;;15.00;100.00;99410.16;5017129;28;20034;-95
2023/08/02 05:15:22;;;;;;;7.95;3.80;;;;;;;14.91;100.00;99406.34;5016788;28;20026;-95
2023/08/02 05:17:53;;;;;;;9.20;4.22;;;;;;;14.88;100.00;99406.91;5033684;28;20025;-95
2023/08/02 05:20:39;;;;;;;8.00;3.88;;;;;;;14.85;100.00;99393.81;5017080;28;20034;-95
2023/08/02 05:23:18;;;;;;;8.65;3.83;;;;;;;14.84;100.00;99386.72;5016728;28;20181;-94
2023/08/02 05:25:47;;;;;;;10.57;4.00;;;;;;;14.77;100.00;99384.28;5002367;28;20037;-94
2023/08/02 05:28:22;;;;;;;9.07;4.05;;;;;;;14.73;100.00;99384.03;5017942;28;20036;-94
2023/08/02 05:30:50;;;;;;;9.52;4.03;;;;;;;14.74;100.00;99371.19;5018055;28;20078;-94
2023/08/02 05:33:20;;;;;;;12.10;3.95;;;;;;;14.77;100.00;99361.63;5000867;28;20126;-95
2023/08/02 05:35:56;;;;;;;11.68;4.25;;;;;;;14.83;100.00;99344.13;5001183;28;20033;-95
2023/08/02 05:38:21;;;;;;;8.93;4.40;;;;;;;14.83;100.00;99334.00;5000737;28;20079;-84
2023/08/02 05:40:47;;;;;;;9.73;4.55;;;;;;;14.85;100.00;99337.31;4999298;28;20072;-84
2023/08/02 05:43:12;;;;;;;10.67;4.50;;;;;;;14.88;100.00;99338.63;5015872;28;20068;-84
2023/08/02 05:45:38;;;;;;;8.10;4.30;;;;;;;14.90;100.00;99329.06;5033209;28;20357;-84
2023/08/02 05:48:03;;;;;;;11.30;4.60;;;;;;;14.87;100.00;99324.19;4998856;28;20033;-83
2023/08/02 05:50:32;;;;;;;8.73;4.50;;;;;;;14.88;100.00;99314.06;4998857;28;20040;-83
2023/08/02 05:52:57;;;;;;;6.95;4.43;;;;;;;14.92;100.00;99315.13;5032035;28;20115;-83
2023/08/02 05:55:22;;;;;;;9.03;4.10;;;;;;;14.92;100.00;99309.69;5028944;28;20426;-83
2023/08/02 05:57:48;;;;;;;6.60;4.00;;;;;;;14.96;100.00;99304.47;5034973;28;20416;-83
2023/08/02 06:00:14;;;;;;;8.30;3.93;;;;;;;15.00;100.00;99289.13;5034994;28;20029;-82
2023/08/02 06:02:39;;;;;;;7.57;4.10;;;;;;;15.04;100.00;99262.91;5053141;28;20029;-85
2023/08/02 06:05:08;;;;;;;7.10;3.20;;;;;;;15.08;100.00;99263.97;5020045;28;20041;-84
2023/08/02 06:07:33;;;;;;;4.30;3.33;;;;;;;15.11;100.00;99257.13;5056242;28;20108;-85
2023/08/02 06:09:59;;;;;;;7.65;3.40;;;;;;;15.13;100.00;99250.25;5056479;28;20110;-84
2023/08/02 06:12:25;;;;;;;6.20;3.17;;;;;;;15.13;100.00;99241.25;5056274;28;20033;-84
2023/08/02 06:14:50;;;;;;;4.97;3.10;;;;;;;15.16;100.00;99244.25;5038456;28;20032;-85
2023/08/02 06:17:15;;;;;;;6.13;3.57;;;;;;;15.19;100.00;99240.13;5056359;28;20052;-85
2023/08/02 06:19:41;;;;;;;4.82;3.10;;;;;;;15.20;100.00;99228.91;5056718;28;20025;-85
2023/08/02 06:22:07;;;;;;;4.70;3.10;;;;;;;15.25;100.00;99220.69;5037794;28;20515;-85
2023/08/02 06:24:32;;;;;;;4.85;2.85;;;;;;;15.25;100.00;99212.47;5038296;28;20108;-85
2023/08/02 06:26:58;;;;;;;4.60;3.20;;;;;;;15.30;100.00;99208.09;5038122;28;20084;-84
2023/08/02 06:29:23;;;;;;;4.67;2.80;;;;;;;15.31;100.00;99201.50;5038386;28;20071;-85
2023/08/02 06:31:48;;;;;;;4.57;2.77;;;;;;;15.30;100.00;99199.88;5021643;28;20036;-86
2023/08/02 06:34:14;;;;;;;5.77;3.00;;;;;;;15.29;100.00;99192.78;5038957;28;20025;-85
2023/08/02 06:36:39;;;;;;;4.43;2.50;;;;;;;15.30;100.00;99186.22;5038132;28;20033;-85
2023/08/02 06:39:05;;;;;;;3.70;2.70;;;;;;;15.32;100.00;99176.63;5038201;28;20029;-85
2023/08/02 06:41:30;;;;;;;3.23;2.47;;;;;;;15.31;100.00;99163.25;5055884;28;20045;-85
2023/08/02 06:43:56;;;;;;;4.73;2.43;;;;;;;15.31;100.00;99161.34;5021582;28;20056;-87
2023/08/02 06:46:21;;;;;;;4.47;2.47;;;;;;;15.33;100.00;99147.38;5055889;28;20377;-85
2023/08/02 06:48:47;;;;;;;2.83;2.57;;;;;;;15.25;100.00;99152.38;5055832;28;20028;-85
2023/08/02 06:51:12;;;;;;;3.03;2.20;;;;;;;15.22;100.00;99133.81;5021216;28;20385;-85
2023/08/02 06:53:38;;;;;;;3.53;2.35;;;;;;;15.29;100.00;99135.41;5037432;28;20025;-85
2023/08/02 06:56:12;;;;;;;4.83;2.73;;;;;;;15.31;100.00;99119.53;5034343;28;20053;-85
2023/08/02 06:58:38;;;;;;;5.50;2.63;;;;;;;15.38;100.00;99103.59;5034216;28;20048;-85
2023/08/02 07:01:14;;;;;;;3.03;2.23;;;;;;;15.35;100.00;99105.00;5034416;28;20041;-85
2023/08/02 07:03:39;;;;;;;4.93;2.42;;;;;;;15.37;100.00;99096.53;5048792;28;20442;-85
2023/08/02 07:06:09;;;;;;;4.50;2.30;;;;;;;15.32;100.00;99094.63;5055565;28;20037;-85
2023/08/02 07:08:34;;;;;;;3.40;2.17;;;;;;;15.30;100.00;99085.13;5037174;28;20029;-86
2023/08/02 07:11:00;;;;;;;4.80;3.30;;;;;;;15.31;100.00;99089.47;5020994;28;20135;-85
2023/08/02 07:13:25;;;;;;;4.23;2.10;;;;;;;15.29;100.00;99080.75;5052015;28;20485;-86
2023/08/02 07:15:50;;;;;;;3.03;2.33;;;;;;;15.30;100.00;99085.13;5037384;28;20039;-86
2023/08/02 07:18:16;;;;;;;3.93;2.07;;;;;;;15.27;100.00;99073.66;5020215;28;20032;-86
2023/08/02 07:20:41;;;;;;;2.30;1.87;;;;;;;15.28;100.00;99074.50;5036652;28;20687;-86
2023/08/02 07:23:07;;;;;;;4.10;2.23;;;;;;;15.29;100.00;99069.84;5020515;28;20067;-86
2023/08/02 07:25:32;;;;;;;2.80;2.17;;;;;;;15.27;100.00;99073.66;5055097;28;20374;-86
2023/08/02 07:27:57;;;;;;;3.77;2.20;;;;;;;15.29;100.00;99067.09;5037477;28;20368;-86
2023/08/02 07:30:23;;;;;;;4.15;2.08;;;;;;;15.28;100.00;99066.28;5037438;28;20487;-86
2023/08/02 07:32:48;;;;;;;3.53;2.00;;;;;;;15.33;100.00;99059.97;5004230;28;20029;-86
2023/08/02 07:35:14;;;;;;;2.43;2.13;;;;;;;15.34;100.00;99056.94;5055233;28;20033;-86
2023/08/02 07:37:49;;;;;;;3.07;2.10;;;;;;;15.39;100.00;99045.94;5037565;28;20083;-86
2023/08/02 07:40:15;;;;;;;4.93;2.30;;;;;;;15.49;100.00;99042.28;5055064;28;20029;-86
2023/08/02 07:42:41;;;;;;;3.60;2.10;;;;;;;15.53;100.00;99043.31;5036674;28;20362;-86
2023/08/02 07:45:12;;;;;;;2.40;2.13;;;;;;;15.65;100.00;99034.69;5055408;28;20279;-86
2023/08/02 07:47:39;;;;;;;4.40;2.50;;;;;;;15.75;100.00;99020.91;5036564;28;20062;-87
2023/08/02 07:50:05;;;;;;;4.17;2.07;;;;;;;15.81;100.00;99016.19;5054233;28;20103;-86
2023/08/02 07:52:38;;;;;;;2.58;2.10;;;;;;;15.77;100.00;99023.34;5069180;28;20029;-91
2023/08/02 07:55:08;;;;;;;3.60;2.35;;;;;;;15.79;100.00;99018.41;5048340;28;20056;-91
2023/08/02 07:57:35;;;;;;;3.25;1.98;;;;;;;15.86;100.00;99016.13;5045876;28;20096;-91
2023/08/02 08:00:01;;;;;;;3.13;2.20;;;;;;;15.97;100.00;98997.63;5041499;28;20033;-91
2023/08/02 08:02:49;;;;;;;4.53;1.90;;;;;;;16.04;100.00;99003.53;5036754;28;20017;-90
2023/08/02 08:05:17;;;;;;;2.90;2.08;;;;;;;16.19;100.00;98997.03;5012862;28;20049;-95
2023/08/02 08:07:46;;;;;;;3.13;2.30;;;;;;;16.23;100.00;98989.84;5001470;28;20448;-95
2023/08/02 08:10:16;;;;;;;3.15;2.05;;;;;;;16.20;100.00;99004.13;5018366;28;20037;-95
2023/08/02 08:15:36;;;;;;;2.50;1.57;;;;;;;16.09;100.00;98994.44;5011565;28;20044;-96
2023/08/02 08:18:18;;;;;;;2.35;1.70;;;;;;;16.06;100.00;98995.88;5018297;28;20041;-95
2023/08/02 08:20:53;;;;;;;2.65;1.60;;;;;;;16.06;100.00;98984.94;5001267;28;20532;-96
2023/08/02 08:23:28;;;;;;;2.10;1.60;;;;;;;16.18;100.00;98965.31;5000995;28;20052;-94
2023/08/02 08:26:01;;;;;;;2.00;1.30;;;;;;;16.27;100.00;98963.50;5025392;28;20124;-94
2023/08/02 08:28:42;;;;;;;2.43;1.40;;;;;;;16.33;100.00;98971.63;5017914;28;20082;-96
2023/08/02 08:31:27;;;;;;;5.13;1.27;;;;;;;16.31;100.00;98989.19;5003695;28;20029;-95
2023/08/02 08:33:55;;;;;;;4.30;1.48;;;;;;;16.31;100.00;98985.59;5017611;28;20033;-96
2023/08/02 08:36:25;;;;;;;4.15;1.70;;;;;;;16.38;100.00;98977.03;5014716;28;20029;-96
2023/08/02 08:39:02;;;;;;;5.97;2.03;;;;;;;16.49;100.00;98981.22;5037367;28;20090;-95
2023/08/02 08:41:53;;;;;;;2.20;1.43;;;;;;;16.47;100.00;98978.75;5022140;28;20025;-95
2023/08/02 08:44:50;;;;;;;2.83;1.63;;;;;;;16.54;100.00;98975.66;5037323;28;20027;-96
2023/08/02 08:47:28;;;;;;;3.20;2.08;;;;;;;16.67;100.00;98969.38;5019382;28;20099;-96
2023/08/02 08:50:08;;;;;;;2.65;2.10;;;;;;;16.78;100.00;98967.25;5001967;28;20056;-96
2023/08/02 08:52:58;;;;;;;;;;;;;;;;;;;;;
2023/08/02 08:55:44;;;;;;;2.50;2.30;;;;;;;16.92;100.00;98967.31;5035026;28;20041;-96
2023/08/02 08:58:20;;;;;;;;;;;;;;;;;;;;;
2023/08/02 09:00:54;;;;;;;2.65;2.40;;;;;;;17.14;100.00;98952.91;5054968;28;20043;-95
2023/08/02 09:03:33;;;;;;;2.83;2.63;;;;;;;17.32;100.00;98955.84;5036428;28;20025;-94
2023/08/02 09:06:10;;;;;;;2.45;2.10;;;;;;;17.40;100.00;98941.41;5036197;28;20448;-94
2023/08/02 09:08:55;;;;;;;3.60;2.53;;;;;;;17.58;100.00;98947.06;5037985;28;20025;-94
2023/08/02 09:11:26;;;;;;;4.18;2.60;;;;;;;17.65;100.00;98925.50;5020990;28;20480;-94
2023/08/02 09:14:32;;;;;;;;;;;;;;;;;;;;;
2023/08/02 09:17:07;;;;;;;3.08;2.60;;;;;;;18.02;100.00;98921.63;5038822;28;20040;-94
2023/08/02 09:19:38;;;;;;;2.70;2.50;;;;;;;18.03;100.00;98926.00;5037249;28;20092;-94
2023/08/02 09:22:27;;;;;;;3.17;2.30;;;;;;;18.10;100.00;98914.59;5036303;28;20037;-95
2023/08/02 09:25:02;;;;;;;3.30;2.00;;;;;;;18.21;100.00;98910.44;5036826;28;20033;-95
2023/08/02 09:27:37;;;;;;;3.28;2.30;;;;;;;18.31;100.00;98909.38;5037022;28;20090;-94
2023/08/02 09:30:06;;;;;;;4.47;2.10;;;;;;;18.29;100.00;98908.91;5036903;28;20060;-94
2023/08/02 09:32:37;;;;;;;2.28;2.00;;;;;;;18.21;100.00;98899.47;5036762;28;20025;-94
2023/08/02 09:35:04;;;;;;;3.33;1.87;;;;;;;18.10;100.00;98903.63;5036052;28;20048;-94
2023/08/02 09:37:44;;;;;;;1.98;1.80;;;;;;;18.06;100.00;98897.13;5036619;28;20400;-94
2023/08/02 09:40:17;;;;;;;1.80;1.70;;;;;;;18.12;100.00;98893.13;5021558;28;20044;-94
2023/08/02 09:42:42;;;;;;;1.90;1.70;;;;;;;18.37;100.00;98891.66;5040570;28;20029;-94
2023/08/02 09:45:30;;;;;;;1.97;1.87;;;;;;;18.63;100.00;98887.41;5040253;28;20059;-94
2023/08/02 09:47:56;;;;;;;1.95;1.85;;;;;;;18.82;100.00;98885.22;5040508;28;20029;-94
2023/08/02 09:50:33;;;;;;;1.67;1.58;;;;;;;19.05;100.00;98879.66;5040346;28;20037;-95
2023/08/02 09:53:23;;;;;;;1.67;1.40;;;;;;;19.31;100.00;98878.88;5040172;28;20025;-94
2023/08/02 09:55:58;;;;;;;2.95;1.30;;;;;;;19.56;100.00;98875.38;5040669;28;20049;-94
2023/08/02 09:58:29;;;;;;;1.52;1.13;;;;;;;19.67;100.00;98877.78;5040268;28;20033;-94
2023/08/02 10:01:03;;;;;;;1.55;1.15;;;;;;;19.57;100.00;98865.16;5039562;28;20532;-94
2023/08/02 10:03:38;;;;;;;3.42;0.98;;;;;;;19.36;100.00;98876.00;5024644;28;20076;-94
2023/08/02 10:06:46;;;;;;;2.40;1.10;;;;;;;19.18;100.00;98878.72;5041290;28;20096;-95
2023/08/02 10:09:30;;;;;;;2.65;1.00;;;;;;;19.73;100.00;98876.50;5007294;28;20037;-95
2023/08/02 10:12:13;;;;;;;1.10;1.00;;;;;;;20.53;100.00;98872.44;5039698;28;20056;-95
2023/08/02 10:14:44;;;;;;;1.13;1.02;;;;;;;21.01;100.00;98868.53;5039860;28;20029;-95
2023/08/02 10:17:18;;;;;;;1.08;0.90;;;;;;;21.27;100.00;98843.50;5039864;28;20523;-96
2023/08/02 10:19:47;;;;;;;1.00;0.90;;;;;;;21.16;100.00;98851.38;5040097;28;20025;-95
2023/08/02 10:22:15;;;;;;;0.90;0.90;;;;;;;21.31;100.00;98844.47;5039310;28;20112;-96
2023/08/02 10:24:46;;;;;;;1.45;1.00;;;;;;;21.26;100.00;98830.88;5039516;28;20056;-96
2023/08/02 10:27:52;;;;;;;;;;;;;;;;;;;;;
2023/08/02 10:30:41;;;;;;;1.30;0.88;;;;;;;21.43;100.00;98826.38;5057256;28;20033;-96
2023/08/02 10:33:22;;;;;;;1.40;0.93;;;;;;;21.31;100.00;98840.91;5039826;28;20083;-95
2023/08/02 10:36:01;;;;;;;1.20;1.10;;;;;;;21.32;100.00;98820.47;5023892;28;20033;-95
2023/08/02 10:38:41;;;;;;;1.65;1.05;;;;;;;21.23;100.00;98812.25;5040094;28;20108;-95
2023/08/02 10:41:15;;;;;;;1.98;1.20;;;;;;;21.13;100.00;98809.91;5039149;28;20496;-96
2023/08/02 10:43:53;;;;;;;1.20;1.10;;;;;;;21.01;100.00;98805.13;5039331;28;20048;-95
2023/08/02 10:47:17;;;;;;;2.60;1.20;;;;;;;20.72;100.00;98804.00;5039407;28;20037;-96
2023/08/02 10:49:42;;;;;;;2.92;1.17;;;;;;;20.41;100.00;98798.78;5013642;28;20036;-95
2023/08/02 10:52:44;;;;;;;1.83;1.33;;;;;;;19.97;100.00;98815.44;5037570;28;20021;-95
2023/08/02 10:55:24;;;;;;;1.37;1.27;;;;;;;19.53;100.00;98801.75;5035945;28;20053;-96
2023/08/02 10:58:17;;;;;;;;;;;;;;;;;;;;;
2023/08/02 11:01:10;;;;;;;2.10;1.83;;;;;;;19.06;100.00;98774.91;5041352;28;20487;-95
2023/08/02 11:04:01;;;;;;;2.08;1.88;;;;;;;18.89;100.00;98769.41;5039111;28;20025;-94
2023/08/02 11:06:39;;;;;;;2.30;2.10;;;;;;;19.02;100.00;98765.69;5024205;28;20033;-95
2023/08/02 11:09:17;;;;;;;4.33;2.10;;;;;;;19.02;100.00;98778.63;5039212;28;20113;-95
2023/08/02 11:11:46;;;;;;;2.63;2.15;;;;;;;18.82;100.00;98780.81;5038526;28;20036;-96
2023/08/02 11:14:33;;;;;;;10.40;2.42;;;;;;;18.73;100.00;98783.56;5038986;28;20060;-95
2023/08/02 11:17:02;;;;;;;8.70;2.67;;;;;;;18.71;100.00;98794.06;5038188;28;20389;-93
2023/08/02 11:19:35;;;;;;;6.10;2.80;;;;;;;18.64;100.00;98788.22;5038372;28;20033;-93
2023/08/02 11:22:06;;;;;;;6.03;2.93;;;;;;;18.54;100.00;98794.84;5038260;28;20032;-93
2023/08/02 11:24:53;;;;;;;;;;;;;;;;;;;;;
2023/08/02 11:27:28;;;;;;;3.08;2.50;;;;;;;18.54;100.00;98810.47;5056592;28;20036;-94
2023/08/02 11:30:27;;;;;;;3.35;2.67;;;;;;;18.39;100.00;98803.47;5038955;28;20400;-93
2023/08/02 11:33:03;;;;;;;3.00;2.70;;;;;;;18.76;100.00;98804.06;5038248;28;20028;-93
2023/08/02 11:35:34;;;;;;;4.63;2.97;;;;;;;19.11;100.00;98796.72;5021923;28;20083;-94
2023/08/02 11:38:22;;;;;;;3.08;2.78;;;;;;;19.30;100.00;98790.13;5034991;28;20032;-95
2023/08/02 11:40:57;;;;;;;5.20;3.03;;;;;;;19.86;100.00;98775.69;5038994;28;20021;-94
2023/08/02 11:43:52;;;;;;;3.65;2.40;;;;;;;20.34;100.00;98793.78;5023567;28;20469;-95
2023/08/02 11:46:57;;;;;;;3.08;2.50;;;;;;;21.90;100.00;98781.97;5024836;28;20500;-94
2023/08/02 11:49:28;;;;;;;3.27;2.30;;;;;;;23.55;100.00;98778.03;5021871;28;20079;-95
2023/08/02 11:52:17;;;;;;;4.97;1.70;;;;;;;23.32;100.00;98777.78;5038241;28;20029;-95
2023/08/02 11:54:48;;;;;;;2.92;1.80;;;;;;;23.97;100.00;98774.84;5046236;28;20370;-94
2023/08/02 11:57:20;;;;;;;3.20;1.98;;;;;;;25.34;100.00;98766.94;5036920;28;20053;-95
2023/08/02 12:00:02;;;;;;;3.45;1.92;;;;;;;25.58;99.47;98781.69;5038722;28;20057;-94
2023/08/02 12:02:36;;;;;;;3.10;2.00;;;;;;;25.79;98.31;98788.84;5037557;28;20029;-95
2023/08/02 12:05:08;;;;;;;2.90;1.50;;;;;;;26.54;90.91;98773.47;5038171;28;20024;-95
2023/08/02 12:07:36;;;;;;;4.57;2.10;;;;;;;27.13;88.72;98771.16;5037112;28;20036;-94
2023/08/02 12:10:11;;;;;;;4.93;2.10;;;;;;;27.27;84.19;98767.78;5037045;28;20052;-95
2023/08/02 12:12:38;;;;;;;4.53;2.25;;;;;;;26.26;88.49;98757.13;5037644;28;20028;-96
2023/08/02 12:15:18;;;;;;;4.77;1.87;;;;;;;25.95;90.31;98747.84;5037389;28;20381;-95
2023/08/02 12:17:44;;;;;;;4.40;1.52;;;;;;;27.63;75.82;98739.56;5021398;28;20197;-95
2023/08/02 12:20:37;;;;;;;4.50;1.60;;;;;;;28.14;70.37;98749.22;5037854;28;20508;-96
2023/08/02 12:23:12;;;;;;;4.80;1.60;;;;;;;29.14;71.80;98757.47;5036278;28;20037;-96
2023/08/02 12:25:44;;;;;;;5.95;1.85;;;;;;;29.34;61.34;98751.63;5037424;28;20112;-96
2023/08/02 12:28:56;;;;;;;4.65;1.80;;;;;;;29.33;66.71;98769.56;5037119;28;20112;-95
2023/08/02 12:31:22;;;;;;;2.90;1.60;;;;;;;27.03;70.60;98771.03;5022421;28;20029;-96
2023/08/02 12:33:48;;;;;;;5.40;1.80;;;;;;;26.59;69.80;98764.03;5036743;28;20025;-95